sensor_id;sensor_type;location;lat;lon;timestamp;P1;durP1;ratioP1;P2;durP2;ratioP2
44165;SDS011;30476;53.468;9.826;2022-08-25T00:01:19;49.37;;;45.70;;
44165;SDS011;30476;53.468;9.826;2022-08-25T00:03:49;50.77;;;47.03;;
44165;SDS011;30476;53.468;9.826;2022-08-25T00:06:16;46.40;;;42.70;;
44165;SDS011;30476;53.468;9.826;2022-08-25T00:08:43;41.07;;;37.63;;
44165;SDS011;30476;53.468;9.826;2022-08-25T00:11:11;45.50;;;41.93;;
44165;SDS011;30476;53.468;9.826;2022-08-25T00:13:40;45.60;;;42.07;;
44165;SDS011;30476;53.468;9.826;2022-08-25T00:16:11;50.87;;;47.07;;
44165;SDS011;30476;53.468;9.826;2022-08-25T00:18:39;45.27;;;41.60;;
44165;SDS011;30476;53.468;9.826;2022-08-25T00:21:06;47.60;;;43.80;;
44165;SDS011;30476;53.468;9.826;2022-08-25T00:23:32;43.80;;;40.10;;
44165;SDS011;30476;53.468;9.826;2022-08-25T00:25:58;37.20;;;34.17;;
44165;SDS011;30476;53.468;9.826;2022-08-25T00:28:26;45.17;;;41.70;;
44165;SDS011;30476;53.468;9.826;2022-08-25T00:30:53;44.87;;;41.37;;
44165;SDS011;30476;53.468;9.826;2022-08-25T00:33:19;42.80;;;39.20;;
44165;SDS011;30476;53.468;9.826;2022-08-25T00:35:45;48.70;;;45.17;;
44165;SDS011;30476;53.468;9.826;2022-08-25T00:38:11;42.57;;;39.40;;
44165;SDS011;30476;53.468;9.826;2022-08-25T00:40:38;43.17;;;39.47;;
44165;SDS011;30476;53.468;9.826;2022-08-25T00:43:05;40.23;;;37.00;;
44165;SDS011;30476;53.468;9.826;2022-08-25T00:45:32;41.63;;;38.33;;
44165;SDS011;30476;53.468;9.826;2022-08-25T00:48:00;39.40;;;36.20;;
44165;SDS011;30476;53.468;9.826;2022-08-25T00:50:28;36.13;;;33.27;;
44165;SDS011;30476;53.468;9.826;2022-08-25T00:52:57;40.37;;;36.83;;
44165;SDS011;30476;53.468;9.826;2022-08-25T00:58:17;37.83;;;34.67;;
44165;SDS011;30476;53.468;9.826;2022-08-25T01:00:52;37.87;;;34.57;;
44165;SDS011;30476;53.468;9.826;2022-08-25T01:03:21;37.83;;;34.87;;
44165;SDS011;30476;53.468;9.826;2022-08-25T01:05:49;34.93;;;31.87;;
44165;SDS011;30476;53.468;9.826;2022-08-25T01:08:16;31.33;;;28.97;;
44165;SDS011;30476;53.468;9.826;2022-08-25T01:10:45;38.60;;;35.10;;
44165;SDS011;30476;53.468;9.826;2022-08-25T01:13:26;37.27;;;34.20;;
44165;SDS011;30476;53.468;9.826;2022-08-25T01:15:58;31.90;;;28.67;;
44165;SDS011;30476;53.468;9.826;2022-08-25T01:18:25;37.43;;;34.50;;
44165;SDS011;30476;53.468;9.826;2022-08-25T01:20:52;34.60;;;31.67;;
44165;SDS011;30476;53.468;9.826;2022-08-25T01:23:19;31.30;;;28.57;;
44165;SDS011;30476;53.468;9.826;2022-08-25T01:28:21;39.03;;;35.90;;
44165;SDS011;30476;53.468;9.826;2022-08-25T01:30:47;32.63;;;30.07;;
44165;SDS011;30476;53.468;9.826;2022-08-25T01:33:14;30.57;;;28.17;;
44165;SDS011;30476;53.468;9.826;2022-08-25T01:35:41;31.57;;;28.60;;
44165;SDS011;30476;53.468;9.826;2022-08-25T01:38:08;31.97;;;29.37;;
44165;SDS011;30476;53.468;9.826;2022-08-25T01:40:37;31.47;;;28.77;;
44165;SDS011;30476;53.468;9.826;2022-08-25T01:45:36;31.97;;;29.13;;
44165;SDS011;30476;53.468;9.826;2022-08-25T01:48:04;32.70;;;26.60;;
44165;SDS011;30476;53.468;9.826;2022-08-25T01:50:31;32.27;;;27.20;;
44165;SDS011;30476;53.468;9.826;2022-08-25T01:55:29;30.93;;;26.40;;
44165;SDS011;30476;53.468;9.826;2022-08-25T01:58:22;30.13;;;26.87;;
44165;SDS011;30476;53.468;9.826;2022-08-25T02:00:51;30.03;;;27.17;;
44165;SDS011;30476;53.468;9.826;2022-08-25T02:03:21;31.23;;;28.27;;
44165;SDS011;30476;53.468;9.826;2022-08-25T02:05:49;27.30;;;22.97;;
44165;SDS011;30476;53.468;9.826;2022-08-25T02:08:15;33.87;;;25.77;;
44165;SDS011;30476;53.468;9.826;2022-08-25T02:10:42;29.77;;;25.30;;
44165;SDS011;30476;53.468;9.826;2022-08-25T02:13:09;27.67;;;23.93;;
44165;SDS011;30476;53.468;9.826;2022-08-25T02:15:38;27.73;;;24.70;;
44165;SDS011;30476;53.468;9.826;2022-08-25T02:18:06;29.73;;;25.63;;
44165;SDS011;30476;53.468;9.826;2022-08-25T02:20:31;34.47;;;28.50;;
44165;SDS011;30476;53.468;9.826;2022-08-25T02:22:57;28.23;;;23.10;;
44165;SDS011;30476;53.468;9.826;2022-08-25T02:25:23;30.10;;;24.50;;
44165;SDS011;30476;53.468;9.826;2022-08-25T02:27:49;31.90;;;23.53;;
44165;SDS011;30476;53.468;9.826;2022-08-25T02:30:15;25.87;;;23.10;;
44165;SDS011;30476;53.468;9.826;2022-08-25T02:32:41;26.60;;;22.73;;
44165;SDS011;30476;53.468;9.826;2022-08-25T02:35:07;25.37;;;21.43;;
44165;SDS011;30476;53.468;9.826;2022-08-25T02:37:33;30.63;;;26.80;;
44165;SDS011;30476;53.468;9.826;2022-08-25T02:40:00;26.23;;;17.87;;
44165;SDS011;30476;53.468;9.826;2022-08-25T02:42:26;26.10;;;20.33;;
44165;SDS011;30476;53.468;9.826;2022-08-25T02:44:52;26.93;;;19.63;;
44165;SDS011;30476;53.468;9.826;2022-08-25T02:47:19;27.30;;;22.40;;
44165;SDS011;30476;53.468;9.826;2022-08-25T02:49:46;30.73;;;21.93;;
44165;SDS011;30476;53.468;9.826;2022-08-25T02:52:13;33.27;;;23.40;;
44165;SDS011;30476;53.468;9.826;2022-08-25T02:54:39;27.60;;;22.00;;
44165;SDS011;30476;53.468;9.826;2022-08-25T02:57:05;25.80;;;20.50;;
44165;SDS011;30476;53.468;9.826;2022-08-25T02:59:31;30.23;;;19.43;;
44165;SDS011;30476;53.468;9.826;2022-08-25T03:01:57;24.40;;;18.67;;
44165;SDS011;30476;53.468;9.826;2022-08-25T03:04:23;31.17;;;21.73;;
44165;SDS011;30476;53.468;9.826;2022-08-25T03:06:49;25.20;;;19.97;;
44165;SDS011;30476;53.468;9.826;2022-08-25T03:09:15;28.70;;;19.33;;
44165;SDS011;30476;53.468;9.826;2022-08-25T03:11:42;20.50;;;18.40;;
44165;SDS011;30476;53.468;9.826;2022-08-25T03:14:08;33.57;;;19.70;;
44165;SDS011;30476;53.468;9.826;2022-08-25T03:16:35;35.60;;;19.30;;
44165;SDS011;30476;53.468;9.826;2022-08-25T03:19:02;27.40;;;19.13;;
44165;SDS011;30476;53.468;9.826;2022-08-25T03:21:28;23.60;;;19.17;;
44165;SDS011;30476;53.468;9.826;2022-08-25T03:23:55;26.07;;;18.00;;
44165;SDS011;30476;53.468;9.826;2022-08-25T03:26:22;27.97;;;20.60;;
44165;SDS011;30476;53.468;9.826;2022-08-25T03:29:07;26.03;;;22.43;;
44165;SDS011;30476;53.468;9.826;2022-08-25T03:31:35;24.93;;;18.17;;
44165;SDS011;30476;53.468;9.826;2022-08-25T03:34:01;27.93;;;21.80;;
44165;SDS011;30476;53.468;9.826;2022-08-25T03:36:27;23.67;;;17.70;;
44165;SDS011;30476;53.468;9.826;2022-08-25T03:38:53;22.70;;;17.53;;
44165;SDS011;30476;53.468;9.826;2022-08-25T03:41:21;21.20;;;17.47;;
44165;SDS011;30476;53.468;9.826;2022-08-25T03:43:52;22.90;;;19.13;;
44165;SDS011;30476;53.468;9.826;2022-08-25T03:46:21;27.33;;;18.20;;
44165;SDS011;30476;53.468;9.826;2022-08-25T03:48:49;29.20;;;19.63;;
44165;SDS011;30476;53.468;9.826;2022-08-25T03:51:22;25.10;;;18.73;;
44165;SDS011;30476;53.468;9.826;2022-08-25T03:53:57;22.23;;;18.53;;
44165;SDS011;30476;53.468;9.826;2022-08-25T03:56:24;25.10;;;22.07;;
44165;SDS011;30476;53.468;9.826;2022-08-25T03:58:51;22.30;;;18.23;;
44165;SDS011;30476;53.468;9.826;2022-08-25T04:01:17;24.73;;;19.23;;
44165;SDS011;30476;53.468;9.826;2022-08-25T04:03:44;21.07;;;18.37;;
44165;SDS011;30476;53.468;9.826;2022-08-25T04:06:10;25.73;;;19.80;;
44165;SDS011;30476;53.468;9.826;2022-08-25T04:08:36;20.27;;;18.17;;
44165;SDS011;30476;53.468;9.826;2022-08-25T04:11:10;26.00;;;19.90;;
44165;SDS011;30476;53.468;9.826;2022-08-25T04:13:38;19.13;;;16.17;;
44165;SDS011;30476;53.468;9.826;2022-08-25T04:16:16;22.93;;;17.83;;
44165;SDS011;30476;53.468;9.826;2022-08-25T04:18:47;18.73;;;16.80;;
44165;SDS011;30476;53.468;9.826;2022-08-25T04:21:15;21.97;;;18.20;;
44165;SDS011;30476;53.468;9.826;2022-08-25T04:23:42;23.23;;;18.30;;
44165;SDS011;30476;53.468;9.826;2022-08-25T04:26:11;20.83;;;16.57;;
44165;SDS011;30476;53.468;9.826;2022-08-25T04:28:39;23.87;;;19.80;;
44165;SDS011;30476;53.468;9.826;2022-08-25T04:31:08;18.03;;;15.20;;
44165;SDS011;30476;53.468;9.826;2022-08-25T04:33:36;20.10;;;16.87;;
44165;SDS011;30476;53.468;9.826;2022-08-25T04:36:03;18.20;;;16.40;;
44165;SDS011;30476;53.468;9.826;2022-08-25T04:38:30;15.60;;;14.23;;
44165;SDS011;30476;53.468;9.826;2022-08-25T04:40:58;18.67;;;15.90;;
44165;SDS011;30476;53.468;9.826;2022-08-25T04:43:26;33.77;;;19.80;;
44165;SDS011;30476;53.468;9.826;2022-08-25T04:45:52;16.03;;;14.20;;
44165;SDS011;30476;53.468;9.826;2022-08-25T04:48:18;19.93;;;16.70;;
44165;SDS011;30476;53.468;9.826;2022-08-25T04:50:44;16.17;;;14.67;;
44165;SDS011;30476;53.468;9.826;2022-08-25T04:53:10;15.73;;;14.13;;
44165;SDS011;30476;53.468;9.826;2022-08-25T04:55:40;12.43;;;11.50;;
44165;SDS011;30476;53.468;9.826;2022-08-25T04:58:11;12.67;;;11.60;;
44165;SDS011;30476;53.468;9.826;2022-08-25T05:00:38;12.33;;;11.30;;
44165;SDS011;30476;53.468;9.826;2022-08-25T05:03:05;12.93;;;11.90;;
44165;SDS011;30476;53.468;9.826;2022-08-25T05:05:31;14.43;;;13.03;;
44165;SDS011;30476;53.468;9.826;2022-08-25T05:07:59;12.03;;;10.97;;
44165;SDS011;30476;53.468;9.826;2022-08-25T05:10:25;14.33;;;13.03;;
44165;SDS011;30476;53.468;9.826;2022-08-25T05:12:51;12.97;;;12.10;;
44165;SDS011;30476;53.468;9.826;2022-08-25T05:15:17;13.90;;;12.53;;
44165;SDS011;30476;53.468;9.826;2022-08-25T05:18:01;13.53;;;12.43;;
44165;SDS011;30476;53.468;9.826;2022-08-25T05:20:27;10.83;;;10.00;;
44165;SDS011;30476;53.468;9.826;2022-08-25T05:22:55;14.47;;;13.40;;
44165;SDS011;30476;53.468;9.826;2022-08-25T05:25:22;12.93;;;11.70;;
44165;SDS011;30476;53.468;9.826;2022-08-25T05:27:48;11.40;;;10.57;;
44165;SDS011;30476;53.468;9.826;2022-08-25T05:30:14;12.97;;;11.80;;
44165;SDS011;30476;53.468;9.826;2022-08-25T05:32:40;11.17;;;10.20;;
44165;SDS011;30476;53.468;9.826;2022-08-25T05:35:06;10.30;;;9.43;;
44165;SDS011;30476;53.468;9.826;2022-08-25T05:37:32;13.60;;;12.60;;
44165;SDS011;30476;53.468;9.826;2022-08-25T05:39:59;10.80;;;9.80;;
44165;SDS011;30476;53.468;9.826;2022-08-25T05:42:25;11.40;;;10.40;;
44165;SDS011;30476;53.468;9.826;2022-08-25T05:44:52;10.93;;;10.03;;
44165;SDS011;30476;53.468;9.826;2022-08-25T05:47:19;13.23;;;12.13;;
44165;SDS011;30476;53.468;9.826;2022-08-25T05:49:45;12.63;;;11.43;;
44165;SDS011;30476;53.468;9.826;2022-08-25T05:52:11;9.77;;;8.93;;
44165;SDS011;30476;53.468;9.826;2022-08-25T05:54:37;9.83;;;9.03;;
44165;SDS011;30476;53.468;9.826;2022-08-25T05:57:04;9.67;;;9.07;;
44165;SDS011;30476;53.468;9.826;2022-08-25T05:59:31;11.97;;;11.13;;
44165;SDS011;30476;53.468;9.826;2022-08-25T06:01:57;13.63;;;12.60;;
44165;SDS011;30476;53.468;9.826;2022-08-25T06:04:41;12.03;;;11.13;;
44165;SDS011;30476;53.468;9.826;2022-08-25T06:07:07;9.87;;;9.07;;
44165;SDS011;30476;53.468;9.826;2022-08-25T06:09:36;12.00;;;11.20;;
44165;SDS011;30476;53.468;9.826;2022-08-25T06:12:03;12.97;;;11.73;;
44165;SDS011;30476;53.468;9.826;2022-08-25T06:14:29;12.20;;;11.20;;
44165;SDS011;30476;53.468;9.826;2022-08-25T06:16:54;11.60;;;10.53;;
44165;SDS011;30476;53.468;9.826;2022-08-25T06:19:21;13.03;;;12.00;;
44165;SDS011;30476;53.468;9.826;2022-08-25T06:21:47;11.87;;;10.73;;
44165;SDS011;30476;53.468;9.826;2022-08-25T06:24:14;13.20;;;12.17;;
44165;SDS011;30476;53.468;9.826;2022-08-25T06:26:39;14.57;;;12.53;;
44165;SDS011;30476;53.468;9.826;2022-08-25T06:29:05;15.03;;;13.47;;
44165;SDS011;30476;53.468;9.826;2022-08-25T06:31:31;14.30;;;13.13;;
44165;SDS011;30476;53.468;9.826;2022-08-25T06:33:57;16.97;;;15.67;;
44165;SDS011;30476;53.468;9.826;2022-08-25T06:36:23;18.73;;;17.00;;
44165;SDS011;30476;53.468;9.826;2022-08-25T06:38:48;20.53;;;16.53;;
44165;SDS011;30476;53.468;9.826;2022-08-25T06:41:14;18.63;;;16.80;;
44165;SDS011;30476;53.468;9.826;2022-08-25T06:43:41;24.43;;;22.00;;
44165;SDS011;30476;53.468;9.826;2022-08-25T06:46:11;27.60;;;24.97;;
44165;SDS011;30476;53.468;9.826;2022-08-25T06:48:39;24.63;;;22.40;;
44165;SDS011;30476;53.468;9.826;2022-08-25T06:51:06;25.83;;;23.33;;
44165;SDS011;30476;53.468;9.826;2022-08-25T06:53:32;23.63;;;21.43;;
44165;SDS011;30476;53.468;9.826;2022-08-25T06:55:59;27.67;;;24.90;;
44165;SDS011;30476;53.468;9.826;2022-08-25T06:58:25;31.67;;;28.80;;
44165;SDS011;30476;53.468;9.826;2022-08-25T07:00:51;32.13;;;29.40;;
44165;SDS011;30476;53.468;9.826;2022-08-25T07:03:17;28.77;;;26.10;;
44165;SDS011;30476;53.468;9.826;2022-08-25T07:05:53;30.50;;;27.30;;
44165;SDS011;30476;53.468;9.826;2022-08-25T07:08:21;30.03;;;27.20;;
44165;SDS011;30476;53.468;9.826;2022-08-25T07:10:47;31.40;;;28.63;;
44165;SDS011;30476;53.468;9.826;2022-08-25T07:13:14;29.97;;;27.30;;
44165;SDS011;30476;53.468;9.826;2022-08-25T07:15:41;34.23;;;31.23;;
44165;SDS011;30476;53.468;9.826;2022-08-25T07:18:08;35.73;;;32.33;;
44165;SDS011;30476;53.468;9.826;2022-08-25T07:20:36;28.57;;;25.77;;
44165;SDS011;30476;53.468;9.826;2022-08-25T07:23:03;31.10;;;28.20;;
44165;SDS011;30476;53.468;9.826;2022-08-25T07:25:29;28.87;;;25.97;;
44165;SDS011;30476;53.468;9.826;2022-08-25T07:27:55;27.23;;;24.63;;
44165;SDS011;30476;53.468;9.826;2022-08-25T07:30:21;32.83;;;30.03;;
44165;SDS011;30476;53.468;9.826;2022-08-25T07:32:47;32.03;;;29.13;;
44165;SDS011;30476;53.468;9.826;2022-08-25T07:35:13;31.63;;;28.93;;
44165;SDS011;30476;53.468;9.826;2022-08-25T07:37:40;33.67;;;30.67;;
44165;SDS011;30476;53.468;9.826;2022-08-25T07:40:20;31.63;;;28.73;;
44165;SDS011;30476;53.468;9.826;2022-08-25T07:42:55;28.80;;;26.30;;
44165;SDS011;30476;53.468;9.826;2022-08-25T07:45:22;29.30;;;26.37;;
44165;SDS011;30476;53.468;9.826;2022-08-25T07:48:01;32.30;;;29.20;;
44165;SDS011;30476;53.468;9.826;2022-08-25T07:50:27;29.30;;;26.40;;
44165;SDS011;30476;53.468;9.826;2022-08-25T07:52:54;27.13;;;24.77;;
44165;SDS011;30476;53.468;9.826;2022-08-25T07:55:22;26.17;;;23.77;;
44165;SDS011;30476;53.468;9.826;2022-08-25T07:57:48;25.83;;;23.30;;
44165;SDS011;30476;53.468;9.826;2022-08-25T08:00:14;30.07;;;27.23;;
44165;SDS011;30476;53.468;9.826;2022-08-25T08:02:41;28.83;;;26.57;;
44165;SDS011;30476;53.468;9.826;2022-08-25T08:05:07;28.33;;;25.67;;
44165;SDS011;30476;53.468;9.826;2022-08-25T08:07:34;28.47;;;25.47;;
44165;SDS011;30476;53.468;9.826;2022-08-25T08:10:00;28.53;;;26.03;;
44165;SDS011;30476;53.468;9.826;2022-08-25T08:12:26;28.67;;;25.80;;
44165;SDS011;30476;53.468;9.826;2022-08-25T08:14:52;25.53;;;22.93;;
44165;SDS011;30476;53.468;9.826;2022-08-25T08:17:18;26.97;;;24.57;;
44165;SDS011;30476;53.468;9.826;2022-08-25T08:19:45;29.73;;;26.93;;
44165;SDS011;30476;53.468;9.826;2022-08-25T08:22:11;28.10;;;25.43;;
44165;SDS011;30476;53.468;9.826;2022-08-25T08:24:41;27.60;;;25.27;;
44165;SDS011;30476;53.468;9.826;2022-08-25T08:27:09;27.03;;;24.63;;
44165;SDS011;30476;53.468;9.826;2022-08-25T08:29:37;32.07;;;29.10;;
44165;SDS011;30476;53.468;9.826;2022-08-25T08:32:05;31.60;;;28.67;;
44165;SDS011;30476;53.468;9.826;2022-08-25T08:34:33;30.77;;;27.87;;
44165;SDS011;30476;53.468;9.826;2022-08-25T08:37:00;28.13;;;25.03;;
44165;SDS011;30476;53.468;9.826;2022-08-25T08:39:26;29.90;;;27.20;;
44165;SDS011;30476;53.468;9.826;2022-08-25T08:49:48;27.83;;;25.20;;
44165;SDS011;30476;53.468;9.826;2022-08-25T08:52:39;30.73;;;27.87;;
44165;SDS011;30476;53.468;9.826;2022-08-25T08:55:38;31.20;;;28.50;;
44165;SDS011;30476;53.468;9.826;2022-08-25T08:58:19;32.30;;;29.13;;
44165;SDS011;30476;53.468;9.826;2022-08-25T09:00:54;27.13;;;24.43;;
44165;SDS011;30476;53.468;9.826;2022-08-25T09:06:09;29.57;;;26.77;;
44165;SDS011;30476;53.468;9.826;2022-08-25T09:08:44;30.07;;;27.37;;
44165;SDS011;30476;53.468;9.826;2022-08-25T09:11:12;33.17;;;30.17;;
44165;SDS011;30476;53.468;9.826;2022-08-25T09:22:01;36.60;;;33.43;;
44165;SDS011;30476;53.468;9.826;2022-08-25T09:24:42;31.47;;;28.23;;
44165;SDS011;30476;53.468;9.826;2022-08-25T09:30:46;38.10;;;34.77;;
44165;SDS011;30476;53.468;9.826;2022-08-25T09:33:22;37.93;;;34.93;;
44165;SDS011;30476;53.468;9.826;2022-08-25T09:35:50;39.17;;;35.63;;
44165;SDS011;30476;53.468;9.826;2022-08-25T09:38:17;38.73;;;35.53;;
44165;SDS011;30476;53.468;9.826;2022-08-25T09:40:46;41.20;;;37.80;;
44165;SDS011;30476;53.468;9.826;2022-08-25T09:43:18;47.47;;;43.53;;
44165;SDS011;30476;53.468;9.826;2022-08-25T09:45:49;47.77;;;43.67;;
44165;SDS011;30476;53.468;9.826;2022-08-25T09:48:29;43.50;;;40.03;;
44165;SDS011;30476;53.468;9.826;2022-08-25T09:56:23;47.23;;;43.53;;
44165;SDS011;30476;53.468;9.826;2022-08-25T09:58:56;43.17;;;39.63;;
44165;SDS011;30476;53.468;9.826;2022-08-25T10:01:51;53.07;;;49.17;;
44165;SDS011;30476;53.468;9.826;2022-08-25T10:04:25;50.53;;;46.80;;
44165;SDS011;30476;53.468;9.826;2022-08-25T10:06:51;57.43;;;53.50;;
44165;SDS011;30476;53.468;9.826;2022-08-25T10:09:26;63.20;;;58.87;;
44165;SDS011;30476;53.468;9.826;2022-08-25T10:11:58;71.40;;;66.43;;
44165;SDS011;30476;53.468;9.826;2022-08-25T10:14:36;68.63;;;64.10;;
44165;SDS011;30476;53.468;9.826;2022-08-25T10:19:37;99.70;;;93.03;;
44165;SDS011;30476;53.468;9.826;2022-08-25T10:22:07;98.30;;;91.37;;
44165;SDS011;30476;53.468;9.826;2022-08-25T10:24:34;65.70;;;61.57;;
44165;SDS011;30476;53.468;9.826;2022-08-25T10:27:11;52.23;;;48.80;;
44165;SDS011;30476;53.468;9.826;2022-08-25T10:32:54;50.40;;;45.33;;
44165;SDS011;30476;53.468;9.826;2022-08-25T10:35:52;32.40;;;30.70;;
44165;SDS011;30476;53.468;9.826;2022-08-25T10:38:45;34.00;;;32.07;;
44165;SDS011;30476;53.468;9.826;2022-08-25T10:49:48;79.43;;;75.93;;
44165;SDS011;30476;53.468;9.826;2022-08-25T10:52:38;77.03;;;73.87;;
44165;SDS011;30476;53.468;9.826;2022-08-25T10:55:48;177.07;;;170.23;;
44165;SDS011;30476;53.468;9.826;2022-08-25T11:04:43;257.43;;;247.80;;
44165;SDS011;30476;53.468;9.826;2022-08-25T11:07:24;231.83;;;223.13;;
44165;SDS011;30476;53.468;9.826;2022-08-25T11:10:12;356.53;;;342.73;;
44165;SDS011;30476;53.468;9.826;2022-08-25T11:12:44;154.23;;;148.37;;
44165;SDS011;30476;53.468;9.826;2022-08-25T11:15:24;257.50;;;247.80;;
44165;SDS011;30476;53.468;9.826;2022-08-25T11:17:52;241.17;;;232.13;;
44165;SDS011;30476;53.468;9.826;2022-08-25T11:20:29;239.87;;;230.73;;
44165;SDS011;30476;53.468;9.826;2022-08-25T11:23:10;331.10;;;318.53;;
44165;SDS011;30476;53.468;9.826;2022-08-25T11:26:11;417.47;;;399.90;;
44165;SDS011;30476;53.468;9.826;2022-08-25T11:28:56;564.33;;;538.13;;
44165;SDS011;30476;53.468;9.826;2022-08-25T11:31:23;535.80;;;509.20;;
44165;SDS011;30476;53.468;9.826;2022-08-25T11:33:51;503.20;;;480.33;;
44165;SDS011;30476;53.468;9.826;2022-08-25T11:43:48;537.93;;;514.77;;
44165;SDS011;30476;53.468;9.826;2022-08-25T11:46:34;809.47;;;763.00;;
44165;SDS011;30476;53.468;9.826;2022-08-25T11:49:25;861.50;;;810.63;;
44165;SDS011;30476;53.468;9.826;2022-08-25T11:51:57;832.20;;;784.13;;
44165;SDS011;30476;53.468;9.826;2022-08-25T11:54:26;799.97;;;755.43;;
44165;SDS011;30476;53.468;9.826;2022-08-25T11:56:59;767.77;;;725.63;;
44165;SDS011;30476;53.468;9.826;2022-08-25T12:10:23;1027.53;;;960.27;;
44165;SDS011;30476;53.468;9.826;2022-08-25T12:13:03;969.67;;;910.10;;
44165;SDS011;30476;53.468;9.826;2022-08-25T12:18:15;1022.53;;;955.90;;
44165;SDS011;30476;53.468;9.826;2022-08-25T12:26:13;917.23;;;862.07;;
44165;SDS011;30476;53.468;9.826;2022-08-25T12:36:54;1090.40;;;999.90;;
44165;SDS011;30476;53.468;9.826;2022-08-25T12:39:27;1129.43;;;999.90;;
44165;SDS011;30476;53.468;9.826;2022-08-25T12:42:04;1114.20;;;999.90;;
44165;SDS011;30476;53.468;9.826;2022-08-25T12:47:23;1122.50;;;999.90;;
44165;SDS011;30476;53.468;9.826;2022-08-25T12:49:53;1145.83;;;999.90;;
44165;SDS011;30476;53.468;9.826;2022-08-25T12:52:59;1158.87;;;999.90;;
44165;SDS011;30476;53.468;9.826;2022-08-25T12:55:33;1136.33;;;999.90;;
44165;SDS011;30476;53.468;9.826;2022-08-25T12:58:01;1161.17;;;999.90;;
44165;SDS011;30476;53.468;9.826;2022-08-25T13:00:36;1186.57;;;999.90;;
44165;SDS011;30476;53.468;9.826;2022-08-25T13:06:35;1161.50;;;999.90;;
44165;SDS011;30476;53.468;9.826;2022-08-25T13:09:18;1152.03;;;999.90;;
44165;SDS011;30476;53.468;9.826;2022-08-25T13:14:55;1169.77;;;999.90;;
44165;SDS011;30476;53.468;9.826;2022-08-25T13:17:29;1190.13;;;999.90;;
44165;SDS011;30476;53.468;9.826;2022-08-25T13:20:12;1178.17;;;999.90;;
44165;SDS011;30476;53.468;9.826;2022-08-25T13:22:47;1172.87;;;999.90;;
44165;SDS011;30476;53.468;9.826;2022-08-25T13:25:22;1186.43;;;999.90;;
44165;SDS011;30476;53.468;9.826;2022-08-25T13:27:50;1209.33;;;999.90;;
44165;SDS011;30476;53.468;9.826;2022-08-25T13:30:23;1206.60;;;999.90;;
44165;SDS011;30476;53.468;9.826;2022-08-25T13:32:49;1202.97;;;999.90;;
44165;SDS011;30476;53.468;9.826;2022-08-25T13:37:53;1203.73;;;999.90;;
44165;SDS011;30476;53.468;9.826;2022-08-25T13:40:26;1205.53;;;999.90;;
44165;SDS011;30476;53.468;9.826;2022-08-25T13:43:03;1218.90;;;999.90;;
44165;SDS011;30476;53.468;9.826;2022-08-25T13:45:33;1202.10;;;999.90;;
44165;SDS011;30476;53.468;9.826;2022-08-25T13:48:06;1194.13;;;999.90;;
44165;SDS011;30476;53.468;9.826;2022-08-25T13:50:37;1194.13;;;999.90;;
44165;SDS011;30476;53.468;9.826;2022-08-25T13:53:09;1186.03;;;999.90;;
44165;SDS011;30476;53.468;9.826;2022-08-25T13:55:58;1240.93;;;999.90;;
44165;SDS011;30476;53.468;9.826;2022-08-25T13:58:27;1237.33;;;999.90;;
44165;SDS011;30476;53.468;9.826;2022-08-25T14:03:42;1241.07;;;999.90;;
44165;SDS011;30476;53.468;9.826;2022-08-25T14:06:18;1236.70;;;999.90;;
44165;SDS011;30476;53.468;9.826;2022-08-25T14:09:01;1226.80;;;999.90;;
44165;SDS011;30476;53.468;9.826;2022-08-25T14:11:32;1237.00;;;999.90;;
44165;SDS011;30476;53.468;9.826;2022-08-25T14:14:07;1224.63;;;999.90;;
44165;SDS011;30476;53.468;9.826;2022-08-25T14:19:43;1224.13;;;999.90;;
44165;SDS011;30476;53.468;9.826;2022-08-25T14:22:11;1223.70;;;999.90;;
44165;SDS011;30476;53.468;9.826;2022-08-25T14:24:37;1216.90;;;999.90;;
44165;SDS011;30476;53.468;9.826;2022-08-25T14:27:04;1213.83;;;999.90;;
44165;SDS011;30476;53.468;9.826;2022-08-25T14:29:30;1207.50;;;999.90;;
44165;SDS011;30476;53.468;9.826;2022-08-25T14:31:56;1191.30;;;999.90;;
44165;SDS011;30476;53.468;9.826;2022-08-25T14:34:24;1165.50;;;999.90;;
44165;SDS011;30476;53.468;9.826;2022-08-25T14:36:53;1141.47;;;999.90;;
44165;SDS011;30476;53.468;9.826;2022-08-25T14:39:19;1153.80;;;999.90;;
44165;SDS011;30476;53.468;9.826;2022-08-25T14:41:45;1161.27;;;999.90;;
44165;SDS011;30476;53.468;9.826;2022-08-25T14:44:13;1154.70;;;999.90;;
44165;SDS011;30476;53.468;9.826;2022-08-25T14:46:41;1144.63;;;999.90;;
44165;SDS011;30476;53.468;9.826;2022-08-25T14:49:17;1134.27;;;999.90;;
44165;SDS011;30476;53.468;9.826;2022-08-25T14:51:47;1118.57;;;999.90;;
44165;SDS011;30476;53.468;9.826;2022-08-25T14:54:13;1113.33;;;999.90;;
44165;SDS011;30476;53.468;9.826;2022-08-25T14:56:42;1126.67;;;999.90;;
44165;SDS011;30476;53.468;9.826;2022-08-25T14:59:10;1113.43;;;999.90;;
44165;SDS011;30476;53.468;9.826;2022-08-25T15:01:37;1108.97;;;999.90;;
44165;SDS011;30476;53.468;9.826;2022-08-25T15:04:07;1064.70;;;989.17;;
44165;SDS011;30476;53.468;9.826;2022-08-25T15:06:40;1025.80;;;954.33;;
44165;SDS011;30476;53.468;9.826;2022-08-25T15:09:07;1013.80;;;944.50;;
44165;SDS011;30476;53.468;9.826;2022-08-25T15:11:38;995.43;;;927.57;;
44165;SDS011;30476;53.468;9.826;2022-08-25T15:14:10;958.33;;;895.17;;
44165;SDS011;30476;53.468;9.826;2022-08-25T15:16:43;968.93;;;904.77;;
44165;SDS011;30476;53.468;9.826;2022-08-25T15:19:19;924.57;;;865.20;;
44165;SDS011;30476;53.468;9.826;2022-08-25T15:21:47;966.33;;;902.43;;
44165;SDS011;30476;53.468;9.826;2022-08-25T15:24:16;937.20;;;876.53;;
44165;SDS011;30476;53.468;9.826;2022-08-25T15:29:21;934.20;;;874.93;;
44165;SDS011;30476;53.468;9.826;2022-08-25T15:31:47;923.33;;;865.43;;
44165;SDS011;30476;53.468;9.826;2022-08-25T15:34:14;910.10;;;853.67;;
44165;SDS011;30476;53.468;9.826;2022-08-25T15:36:40;907.40;;;850.13;;
44165;SDS011;30476;53.468;9.826;2022-08-25T15:39:06;868.70;;;815.73;;
44165;SDS011;30476;53.468;9.826;2022-08-25T15:41:33;863.70;;;811.93;;
44165;SDS011;30476;53.468;9.826;2022-08-25T15:44:01;823.00;;;774.00;;
44165;SDS011;30476;53.468;9.826;2022-08-25T15:46:28;808.20;;;760.80;;
44165;SDS011;30476;53.468;9.826;2022-08-25T15:48:57;766.50;;;722.90;;
44165;SDS011;30476;53.468;9.826;2022-08-25T15:51:26;766.47;;;723.03;;
44165;SDS011;30476;53.468;9.826;2022-08-25T15:53:53;758.87;;;714.97;;
44165;SDS011;30476;53.468;9.826;2022-08-25T15:56:20;544.80;;;521.27;;
44165;SDS011;30476;53.468;9.826;2022-08-25T15:58:48;543.23;;;519.83;;
44165;SDS011;30476;53.468;9.826;2022-08-25T16:01:15;655.27;;;619.97;;
44165;SDS011;30476;53.468;9.826;2022-08-25T16:03:43;504.43;;;483.03;;
44165;SDS011;30476;53.468;9.826;2022-08-25T16:06:09;479.40;;;459.47;;
44165;SDS011;30476;53.468;9.826;2022-08-25T16:08:35;418.83;;;402.03;;
44165;SDS011;30476;53.468;9.826;2022-08-25T16:11:03;431.17;;;414.27;;
44165;SDS011;30476;53.468;9.826;2022-08-25T16:13:30;424.53;;;407.67;;
44165;SDS011;30476;53.468;9.826;2022-08-25T16:15:56;391.23;;;375.70;;
44165;SDS011;30476;53.468;9.826;2022-08-25T16:18:24;410.17;;;394.37;;
44165;SDS011;30476;53.468;9.826;2022-08-25T16:20:50;403.87;;;387.97;;